Datum - Zeit
Döttingen
TemperaturTaupunktFeuchteSolar Wind aus
Richtung
Windböenaus
Richtung
Luftdruck
(QFF)
RegenRegen
Stärke
26.09.2017 - 00.00Uhr12.8 °C10.8 °C87 %0.0 W/m²2.1 km/hOst-SO8.3 km/hOst-SO1019.3 hPa0.0 mm0.0 mm/h
26.09.2017 - 00.05Uhr12.9 °C10.8 °C87 %0.0 W/m²1.1 km/hOst-SO4.0 km/hOst-SO1019.4 hPa0.0 mm0.0 mm/h
26.09.2017 - 00.10Uhr13.0 °C10.9 °C87 %0.0 W/m²2.4 km/hOst-SO8.3 km/hOst-SO1019.4 hPa0.0 mm0.0 mm/h
26.09.2017 - 00.15Uhr13.1 °C10.8 °C86 %0.0 W/m²0.9 km/hOst-SO4.0 km/hOst-SO1019.4 hPa0.0 mm0.0 mm/h
26.09.2017 - 00.20Uhr13.0 °C10.7 °C86 %0.0 W/m²1.3 km/hOst-SO4.0 km/hOst-SO1019.5 hPa0.0 mm0.0 mm/h
26.09.2017 - 00.25Uhr13.0 °C10.8 °C86 %0.0 W/m²2.2 km/hOst-SO8.3 km/hOst-SO1019.5 hPa0.0 mm0.0 mm/h
26.09.2017 - 00.30Uhr13.2 °C10.9 °C86 %0.0 W/m²3.6 km/hOst-SO8.3 km/hOst-SO1019.5 hPa0.0 mm0.0 mm/h
26.09.2017 - 00.35Uhr13.2 °C10.9 °C86 %0.0 W/m²6.0 km/hOst-SO8.3 km/hOst-SO1019.5 hPa0.0 mm0.0 mm/h
26.09.2017 - 00.40Uhr13.2 °C10.9 °C86 %0.0 W/m²4.1 km/hOst-SO8.3 km/hOst-SO1019.5 hPa0.0 mm0.0 mm/h
26.09.2017 - 00.45Uhr13.1 °C10.8 °C86 %0.0 W/m²1.7 km/hOst-SO4.0 km/hOst-SO1019.5 hPa0.0 mm0.0 mm/h
26.09.2017 - 00.50Uhr12.8 °C10.6 °C87 %0.0 W/m²0.0 km/hOst-SO0.0 km/hNorden1019.5 hPa0.0 mm0.0 mm/h
26.09.2017 - 00.55Uhr12.4 °C10.4 °C88 %0.0 W/m²0.0 km/hOst-SO0.0 km/hNorden1019.6 hPa0.0 mm0.0 mm/h
26.09.2017 - 01.00Uhr12.1 °C10.2 °C89 %0.0 W/m²0.0 km/hOst-SO0.0 km/hNorden1019.5 hPa0.0 mm0.0 mm/h
26.09.2017 - 01.05Uhr12.1 °C10.3 °C89 %0.0 W/m²0.0 km/hOst-SO0.0 km/hNorden1019.5 hPa0.0 mm0.0 mm/h
26.09.2017 - 01.10Uhr12.1 °C10.3 °C89 %0.0 W/m²0.0 km/hOst-SO0.0 km/hNorden1019.5 hPa0.0 mm0.0 mm/h
26.09.2017 - 01.15Uhr12.1 °C10.4 °C90 %0.0 W/m²0.0 km/hOst-SO0.0 km/hNorden1019.5 hPa0.0 mm0.0 mm/h
26.09.2017 - 01.20Uhr12.1 °C10.5 °C90 %0.0 W/m²0.0 km/hOst-SO0.0 km/hNorden1019.5 hPa0.0 mm0.0 mm/h
26.09.2017 - 01.25Uhr11.9 °C10.3 °C90 %0.0 W/m²0.5 km/hOst-SO1.8 km/hOst-SO1019.5 hPa0.0 mm0.0 mm/h
26.09.2017 - 01.30Uhr11.8 °C10.2 °C90 %0.0 W/m²0.5 km/hOst-SO1.8 km/hOst-SO1019.5 hPa0.0 mm0.0 mm/h
26.09.2017 - 01.35Uhr11.6 °C10.0 °C90 %0.0 W/m²0.6 km/hOst-SO1.8 km/hOst-SO1019.5 hPa0.0 mm0.0 mm/h
26.09.2017 - 01.40Uhr11.4 °C9.8 °C90 %0.0 W/m²0.0 km/hOst-SO0.0 km/hNorden1019.5 hPa0.0 mm0.0 mm/h
26.09.2017 - 01.45Uhr11.2 °C9.6 °C90 %0.0 W/m²0.3 km/hOst-SO1.8 km/hOst-SO1019.5 hPa0.0 mm0.0 mm/h
26.09.2017 - 01.50Uhr11.0 °C9.4 °C90 %0.0 W/m²0.0 km/hOst-SO0.0 km/hNorden1019.6 hPa0.0 mm0.0 mm/h
26.09.2017 - 01.55Uhr11.1 °C9.7 °C91 %0.0 W/m²0.2 km/hOst-SO1.8 km/hOst-SO1019.6 hPa0.0 mm0.0 mm/h
26.09.2017 - 02.00Uhr11.0 °C9.6 °C91 %0.0 W/m²0.7 km/hOst-SO1.8 km/hOst-SO1019.6 hPa0.0 mm0.0 mm/h
26.09.2017 - 02.05Uhr10.7 °C9.1 °C90 %0.0 W/m²2.6 km/hOst-SO4.0 km/hOst-SO1019.6 hPa0.0 mm0.0 mm/h
26.09.2017 - 02.10Uhr10.2 °C8.7 °C90 %0.0 W/m²0.7 km/hOst-SO1.8 km/hOst-SO1019.6 hPa0.0 mm0.0 mm/h
26.09.2017 - 02.15Uhr10.5 °C9.1 °C91 %0.0 W/m²0.2 km/hOst-SO1.8 km/hOst-SO1019.6 hPa0.0 mm0.0 mm/h
26.09.2017 - 02.20Uhr10.8 °C9.4 °C91 %0.0 W/m²2.3 km/hOst-SO4.0 km/hOst-SO1019.6 hPa0.0 mm0.0 mm/h
26.09.2017 - 02.25Uhr10.8 °C9.4 °C91 %0.0 W/m²2.0 km/hOst-SO4.0 km/hOst-SO1019.6 hPa0.0 mm0.0 mm/h
26.09.2017 - 02.30Uhr10.8 °C9.4 °C91 %0.0 W/m²1.4 km/hOst-SO4.0 km/hOst-SO1019.6 hPa0.0 mm0.0 mm/h
26.09.2017 - 02.35Uhr10.9 °C9.5 °C91 %0.0 W/m²1.8 km/hOst-SO4.0 km/hOst-SO1019.6 hPa0.0 mm0.0 mm/h
26.09.2017 - 02.40Uhr10.9 °C9.5 °C91 %0.0 W/m²1.4 km/hOst-SO4.0 km/hOst-SO1019.6 hPa0.0 mm0.0 mm/h
26.09.2017 - 02.45Uhr10.9 °C9.5 °C91 %0.0 W/m²2.3 km/hOst-SO4.0 km/hOst-SO1019.6 hPa0.0 mm0.0 mm/h
26.09.2017 - 02.50Uhr10.7 °C9.3 °C91 %0.0 W/m²2.3 km/hOst-SO8.3 km/hOst-SO1019.6 hPa0.0 mm0.0 mm/h
26.09.2017 - 02.55Uhr10.7 °C9.3 °C91 %0.0 W/m²1.1 km/hOst-SO4.0 km/hOst-SO1019.6 hPa0.0 mm0.0 mm/h
26.09.2017 - 03.00Uhr10.6 °C9.2 °C91 %0.0 W/m²1.2 km/hOst-SO4.0 km/hOst-SO1019.6 hPa0.0 mm0.0 mm/h
26.09.2017 - 03.05Uhr10.2 °C8.8 °C91 %0.0 W/m²0.0 km/hOst-SO0.0 km/hNorden1019.6 hPa0.0 mm0.0 mm/h
26.09.2017 - 03.10Uhr9.9 °C8.5 °C91 %0.0 W/m²0.3 km/hOst-SO1.8 km/hOst-SO1019.6 hPa0.0 mm0.0 mm/h
26.09.2017 - 03.15Uhr9.9 °C8.5 °C91 %0.0 W/m²0.0 km/hOst-SO0.0 km/hNorden1019.6 hPa0.0 mm0.0 mm/h
26.09.2017 - 03.20Uhr10.1 °C8.8 °C92 %0.0 W/m²0.3 km/hOst-SO1.8 km/hOst-SO1019.6 hPa0.0 mm0.0 mm/h
26.09.2017 - 03.25Uhr10.2 °C9.0 °C92 %0.0 W/m²0.3 km/hOst-SO1.8 km/hOst-SO1019.6 hPa0.0 mm0.0 mm/h
26.09.2017 - 03.30Uhr10.1 °C8.9 °C92 %0.0 W/m²0.0 km/hOst-SO0.0 km/hNorden1019.6 hPa0.0 mm0.0 mm/h
26.09.2017 - 03.35Uhr10.0 °C8.8 °C92 %0.0 W/m²0.0 km/hOst-SO0.0 km/hNorden1019.6 hPa0.0 mm0.0 mm/h
26.09.2017 - 03.40Uhr10.0 °C8.8 °C92 %0.0 W/m²0.2 km/hOst-SO1.8 km/hOst-SO1019.6 hPa0.0 mm0.0 mm/h
26.09.2017 - 03.45Uhr10.0 °C8.8 °C92 %0.0 W/m²0.0 km/hOst-SO0.0 km/hNorden1019.6 hPa0.0 mm0.0 mm/h
26.09.2017 - 03.50Uhr10.1 °C8.8 °C92 %0.0 W/m²0.0 km/hOst-SO0.0 km/hNorden1019.6 hPa0.0 mm0.0 mm/h
26.09.2017 - 03.55Uhr9.8 °C8.7 °C92 %0.0 W/m²0.0 km/hOst-SO0.0 km/hNorden1019.6 hPa0.0 mm0.0 mm/h
26.09.2017 - 04.00Uhr9.6 °C8.4 °C92 %0.0 W/m²0.0 km/hOst-SO0.0 km/hNorden1019.6 hPa0.0 mm0.0 mm/h
26.09.2017 - 04.05Uhr9.3 °C8.1 °C92 %0.0 W/m²0.0 km/hOst-SO0.0 km/hNorden1019.6 hPa0.0 mm0.0 mm/h
26.09.2017 - 04.10Uhr9.3 °C8.1 °C92 %0.0 W/m²0.0 km/hOst-SO0.0 km/hNorden1019.6 hPa0.0 mm0.0 mm/h
26.09.2017 - 04.15Uhr9.3 °C8.1 °C92 %0.0 W/m²0.0 km/hOst-SO0.0 km/hNorden1019.6 hPa0.0 mm0.0 mm/h
26.09.2017 - 04.20Uhr9.3 °C8.1 °C92 %0.0 W/m²0.0 km/hOst-SO0.0 km/hNorden1019.6 hPa0.0 mm0.0 mm/h
26.09.2017 - 04.25Uhr9.2 °C8.0 °C92 %0.0 W/m²0.4 km/hOst-SO1.8 km/hOst-SO1019.7 hPa0.0 mm0.0 mm/h
26.09.2017 - 04.30Uhr9.2 °C8.0 °C92 %0.0 W/m²0.8 km/hOst-SO1.8 km/hOst-SO1019.7 hPa0.0 mm0.0 mm/h
26.09.2017 - 04.35Uhr9.2 °C8.1 °C92 %0.0 W/m²0.7 km/hOst-SO1.8 km/hOst-SO1019.7 hPa0.0 mm0.0 mm/h
26.09.2017 - 04.40Uhr9.3 °C8.1 °C92 %0.0 W/m²1.1 km/hOst-SO4.0 km/hOst-SO1019.7 hPa0.0 mm0.0 mm/h
26.09.2017 - 04.45Uhr9.5 °C8.3 °C92 %0.0 W/m²0.7 km/hOst-SO1.8 km/hOst-SO1019.7 hPa0.0 mm0.0 mm/h
26.09.2017 - 04.50Uhr9.4 °C8.2 °C92 %0.0 W/m²0.0 km/hOst-SO0.0 km/hNorden1019.7 hPa0.0 mm0.0 mm/h
26.09.2017 - 04.55Uhr9.5 °C8.3 °C92 %0.0 W/m²0.0 km/hOst-SO0.0 km/hNorden1019.8 hPa0.0 mm0.0 mm/h
26.09.2017 - 05.00Uhr9.6 °C8.4 °C92 %0.0 W/m²0.0 km/hOst-SO0.0 km/hNorden1019.8 hPa0.0 mm0.0 mm/h
26.09.2017 - 05.05Uhr9.5 °C8.3 °C92 %0.0 W/m²0.0 km/hOst-SO0.0 km/hNorden1019.7 hPa0.0 mm0.0 mm/h
26.09.2017 - 05.10Uhr9.6 °C8.4 °C92 %0.0 W/m²0.0 km/hOst-SO0.0 km/hNorden1019.8 hPa0.0 mm0.0 mm/h
26.09.2017 - 05.15Uhr9.6 °C8.4 °C92 %0.0 W/m²0.0 km/hOst-SO0.0 km/hNorden1019.9 hPa0.0 mm0.0 mm/h
26.09.2017 - 05.20Uhr9.7 °C8.5 °C92 %0.0 W/m²0.0 km/hOst-SO0.0 km/hNorden1019.9 hPa0.0 mm0.0 mm/h
26.09.2017 - 05.25Uhr9.8 °C8.6 °C92 %0.0 W/m²0.0 km/hOst-SO0.0 km/hNorden1019.9 hPa0.0 mm0.0 mm/h
26.09.2017 - 05.30Uhr9.8 °C8.7 °C92 %0.0 W/m²0.0 km/hOst-SO0.0 km/hNorden1019.8 hPa0.0 mm0.0 mm/h
26.09.2017 - 05.35Uhr9.9 °C8.7 °C92 %0.0 W/m²0.0 km/hOst-SO0.0 km/hNorden1019.9 hPa0.0 mm0.0 mm/h
26.09.2017 - 05.40Uhr10.0 °C8.9 °C93 %0.0 W/m²0.0 km/hOst-SO0.0 km/hNorden1019.8 hPa0.0 mm0.0 mm/h
26.09.2017 - 05.45Uhr9.9 °C8.8 °C93 %0.0 W/m²0.0 km/hOst-SO0.0 km/hNorden1019.9 hPa0.0 mm0.0 mm/h
26.09.2017 - 05.50Uhr10.0 °C8.9 °C93 %0.0 W/m²0.0 km/hOst-SO0.0 km/hNorden1019.9 hPa0.0 mm0.0 mm/h
26.09.2017 - 05.55Uhr10.1 °C9.0 °C93 %0.0 W/m²0.0 km/hOst-SO0.0 km/hNorden1019.9 hPa0.0 mm0.0 mm/h
26.09.2017 - 06.00Uhr10.2 °C9.1 °C93 %0.0 W/m²0.0 km/hOst-SO0.0 km/hNorden1019.9 hPa0.0 mm0.0 mm/h
26.09.2017 - 06.05Uhr10.3 °C9.2 °C93 %0.0 W/m²0.0 km/hOst-SO0.0 km/hNorden1019.9 hPa0.0 mm0.0 mm/h
26.09.2017 - 06.10Uhr10.2 °C9.1 °C93 %0.0 W/m²0.3 km/hOst-SO1.8 km/hOst-SO1019.9 hPa0.0 mm0.0 mm/h
26.09.2017 - 06.15Uhr10.2 °C9.1 °C93 %0.0 W/m²0.0 km/hOst-SO0.0 km/hNorden1019.9 hPa0.0 mm0.0 mm/h
26.09.2017 - 06.20Uhr10.2 °C9.1 °C93 %0.0 W/m²0.8 km/hOst-SO1.8 km/hOst-SO1019.9 hPa0.0 mm0.0 mm/h
26.09.2017 - 06.25Uhr10.1 °C9.0 °C93 %0.0 W/m²2.2 km/hOst-SO4.0 km/hOst-SO1019.9 hPa0.0 mm0.0 mm/h
26.09.2017 - 06.30Uhr10.1 °C9.0 °C93 %0.0 W/m²0.2 km/hOst-SO1.8 km/hOst-SO1019.9 hPa0.0 mm0.0 mm/h
26.09.2017 - 06.35Uhr10.1 °C8.9 °C93 %0.0 W/m²0.1 km/hOst-SO1.8 km/hOst-SO1020.0 hPa0.0 mm0.0 mm/h
26.09.2017 - 06.40Uhr10.1 °C9.0 °C93 %0.0 W/m²0.0 km/hOst-SO0.0 km/hNorden1020.0 hPa0.0 mm0.0 mm/h
26.09.2017 - 06.45Uhr10.1 °C9.0 °C93 %0.0 W/m²0.0 km/hOst-SO0.0 km/hNorden1020.1 hPa0.0 mm0.0 mm/h
26.09.2017 - 06.50Uhr10.1 °C9.0 °C93 %0.0 W/m²0.0 km/hOst-SO0.0 km/hNorden1020.0 hPa0.0 mm0.0 mm/h
26.09.2017 - 06.55Uhr10.1 °C9.0 °C93 %0.0 W/m²0.4 km/hOst-SO1.8 km/hOst-SO1020.1 hPa0.0 mm0.0 mm/h
26.09.2017 - 07.00Uhr10.0 °C8.9 °C93 %0.0 W/m²0.0 km/hOst-SO0.0 km/hNorden1020.1 hPa0.0 mm0.0 mm/h
26.09.2017 - 07.05Uhr10.1 °C9.0 °C93 %0.0 W/m²0.0 km/hOst-SO0.0 km/hNorden1020.2 hPa0.0 mm0.0 mm/h
26.09.2017 - 07.10Uhr10.1 °C9.0 °C93 %0.0 W/m²1.1 km/hOst-SO4.0 km/hOst-SO1020.2 hPa0.0 mm0.0 mm/h
26.09.2017 - 07.15Uhr10.0 °C8.9 °C93 %0.0 W/m²0.0 km/hOst-SO0.0 km/hNorden1020.3 hPa0.0 mm0.0 mm/h
26.09.2017 - 07.20Uhr10.0 °C8.9 °C93 %0.0 W/m²0.4 km/hOst-SO1.8 km/hOst-SO1020.3 hPa0.0 mm0.0 mm/h
26.09.2017 - 07.25Uhr9.9 °C8.8 °C93 %0.0 W/m²0.6 km/hOst-SO1.8 km/hOst-SO1020.4 hPa0.0 mm0.0 mm/h
26.09.2017 - 07.30Uhr9.9 °C8.8 °C93 %5.0 W/m²2.0 km/hOst-SO8.3 km/hOst-SO1020.4 hPa0.0 mm0.0 mm/h
26.09.2017 - 07.35Uhr9.8 °C8.7 °C93 %7.0 W/m²2.3 km/hOst-SO8.3 km/hOst-SO1020.5 hPa0.0 mm0.0 mm/h
26.09.2017 - 07.40Uhr9.8 °C8.7 °C93 %11.0 W/m²1.1 km/hOst-SO4.0 km/hOst-SO1020.5 hPa0.0 mm0.0 mm/h
26.09.2017 - 07.45Uhr9.8 °C8.7 °C93 %12.0 W/m²0.3 km/hOst-SO1.8 km/hOst-SO1020.5 hPa0.0 mm0.0 mm/h
26.09.2017 - 07.50Uhr9.9 °C8.8 °C93 %16.0 W/m²1.1 km/hOst-SO4.0 km/hOst-SO1020.5 hPa0.0 mm0.0 mm/h
26.09.2017 - 07.55Uhr9.8 °C8.7 °C93 %19.0 W/m²0.4 km/hOst-SO1.8 km/hOst-SO1020.6 hPa0.0 mm0.0 mm/h
26.09.2017 - 08.00Uhr9.7 °C8.7 °C93 %21.0 W/m²0.8 km/hOst-SO1.8 km/hOst-SO1020.6 hPa0.0 mm0.0 mm/h
26.09.2017 - 08.05Uhr9.8 °C8.7 °C93 %21.0 W/m²0.5 km/hOst-SO1.8 km/hOst-SO1020.6 hPa0.0 mm0.0 mm/h
26.09.2017 - 08.10Uhr9.9 °C8.8 °C93 %25.0 W/m²0.0 km/hOst-SO0.0 km/hNorden1020.6 hPa0.0 mm0.0 mm/h
26.09.2017 - 08.15Uhr9.8 °C8.9 °C94 %28.0 W/m²3.0 km/hOst-SO8.3 km/hOst-SO1020.7 hPa0.0 mm0.0 mm/h
26.09.2017 - 08.20Uhr9.9 °C8.8 °C93 %35.0 W/m²0.9 km/hOst-SO4.0 km/hOst-SO1020.7 hPa0.0 mm0.0 mm/h
26.09.2017 - 08.25Uhr10.0 °C8.9 °C93 %39.0 W/m²2.0 km/hOst-SO8.3 km/hOst-SO1020.7 hPa0.0 mm0.0 mm/h
26.09.2017 - 08.30Uhr9.8 °C8.9 °C94 %42.0 W/m²2.0 km/hOst-SO8.3 km/hOst-SO1020.8 hPa0.0 mm0.0 mm/h
26.09.2017 - 08.35Uhr9.8 °C8.9 °C94 %37.0 W/m²1.4 km/hOst-SO4.0 km/hOst-SO1020.8 hPa0.0 mm0.0 mm/h
26.09.2017 - 08.40Uhr9.9 °C8.9 °C94 %49.0 W/m²2.5 km/hOst-SO8.3 km/hOst-SO1020.8 hPa0.0 mm0.0 mm/h
26.09.2017 - 08.45Uhr10.0 °C9.0 °C93 %53.0 W/m²0.0 km/hOst-SO0.0 km/hNorden1020.8 hPa0.0 mm0.0 mm/h
26.09.2017 - 08.50Uhr10.1 °C8.9 °C93 %56.0 W/m²0.0 km/hOst-SO0.0 km/hNorden1020.8 hPa0.0 mm0.0 mm/h
26.09.2017 - 08.55Uhr10.0 °C8.9 °C93 %65.0 W/m²0.3 km/hOst-SO1.8 km/hOst-SO1020.8 hPa0.0 mm0.0 mm/h
26.09.2017 - 09.00Uhr9.9 °C8.9 °C94 %70.0 W/m²0.0 km/hOst-SO0.0 km/hNorden1020.8 hPa0.0 mm0.0 mm/h
26.09.2017 - 09.05Uhr10.0 °C8.9 °C93 %77.0 W/m²0.5 km/hOst-SO1.8 km/hOst-SO1020.8 hPa0.0 mm0.0 mm/h
26.09.2017 - 09.10Uhr10.1 °C9.1 °C94 %79.0 W/m²0.3 km/hOst-SO1.8 km/hOst-SO1020.9 hPa0.0 mm0.0 mm/h
26.09.2017 - 09.15Uhr10.2 °C9.3 °C94 %77.0 W/m²0.0 km/hOst-SO0.0 km/hNorden1021.0 hPa0.0 mm0.0 mm/h
26.09.2017 - 09.20Uhr10.3 °C9.4 °C94 %86.0 W/m²0.2 km/hOst-SO1.8 km/hOst-SO1021.0 hPa0.0 mm0.0 mm/h
26.09.2017 - 09.25Uhr10.0 °C9.1 °C94 %90.0 W/m²0.2 km/hOst-SO1.8 km/hOst-SO1020.9 hPa0.0 mm0.0 mm/h
26.09.2017 - 09.30Uhr10.3 °C9.4 °C94 %93.0 W/m²0.8 km/hOst-SO4.0 km/hOst-SO1020.9 hPa0.0 mm0.0 mm/h
26.09.2017 - 09.35Uhr10.3 °C9.4 °C94 %100.0 W/m²0.6 km/hOst-SO1.8 km/hOst-SO1020.9 hPa0.0 mm0.0 mm/h
26.09.2017 - 09.40Uhr10.4 °C9.5 °C94 %105.0 W/m²0.0 km/hOst-SO0.0 km/hNorden1021.0 hPa0.0 mm0.0 mm/h
26.09.2017 - 09.45Uhr10.6 °C9.7 °C94 %120.0 W/m²0.5 km/hOst-SO1.8 km/hOst-SO1021.0 hPa0.0 mm0.0 mm/h
26.09.2017 - 09.50Uhr10.6 °C9.7 °C94 %134.0 W/m²0.9 km/hOst-SO4.0 km/hOst-SO1021.1 hPa0.0 mm0.0 mm/h
26.09.2017 - 09.55Uhr10.5 °C9.6 °C94 %128.0 W/m²1.2 km/hOst-SO4.0 km/hOst-SO1021.1 hPa0.0 mm0.0 mm/h
26.09.2017 - 10.00Uhr10.4 °C9.5 °C94 %142.0 W/m²0.0 km/hOst-SO0.0 km/hNorden1021.2 hPa0.0 mm0.0 mm/h
26.09.2017 - 10.05Uhr10.8 °C9.9 °C94 %137.0 W/m²0.0 km/hOst-SO0.0 km/hNorden1021.2 hPa0.0 mm0.0 mm/h
26.09.2017 - 10.10Uhr10.6 °C9.7 °C94 %148.0 W/m²0.9 km/hOst-SO4.0 km/hOst-SO1021.3 hPa0.0 mm0.0 mm/h
26.09.2017 - 10.15Uhr10.6 °C9.7 °C94 %172.0 W/m²0.5 km/hOst-SO1.8 km/hOst-SO1021.3 hPa0.0 mm0.0 mm/h
26.09.2017 - 10.20Uhr10.7 °C9.7 °C94 %171.0 W/m²0.7 km/hOst-SO4.0 km/hOst-SO1021.3 hPa0.0 mm0.0 mm/h
26.09.2017 - 10.25Uhr11.0 °C10.1 °C94 %211.0 W/m²0.6 km/hOst-SO1.8 km/hOst-SO1021.3 hPa0.0 mm0.0 mm/h
26.09.2017 - 10.30Uhr11.3 °C10.4 °C94 %214.0 W/m²0.0 km/hOst-SO0.0 km/hNorden1021.3 hPa0.0 mm0.0 mm/h
26.09.2017 - 10.35Uhr11.2 °C10.2 °C93 %195.0 W/m²0.6 km/hOst-SO1.8 km/hOst-SO1021.2 hPa0.0 mm0.0 mm/h
26.09.2017 - 10.40Uhr11.5 °C10.5 °C94 %209.0 W/m²1.4 km/hOst-SO8.3 km/hOst-SO1021.3 hPa0.0 mm0.0 mm/h
26.09.2017 - 10.45Uhr11.5 °C10.4 °C93 %209.0 W/m²2.0 km/hOst-SO8.3 km/hOst-SO1021.2 hPa0.0 mm0.0 mm/h
26.09.2017 - 10.50Uhr11.8 °C10.7 °C93 %279.0 W/m²0.6 km/hOst-SO1.8 km/hOst-SO1021.3 hPa0.0 mm0.0 mm/h
26.09.2017 - 10.55Uhr12.2 °C11.1 °C93 %274.0 W/m²0.3 km/hOst-SO1.8 km/hOst-SO1021.3 hPa0.0 mm0.0 mm/h
26.09.2017 - 11.00Uhr12.1 °C11.0 °C93 %352.0 W/m²2.0 km/hOst-SO8.3 km/hOst-SO1021.3 hPa0.0 mm0.0 mm/h
26.09.2017 - 11.05Uhr12.6 °C11.4 °C93 %390.0 W/m²0.9 km/hOst-SO4.0 km/hOst-SO1021.3 hPa0.0 mm0.0 mm/h
26.09.2017 - 11.10Uhr12.9 °C11.6 °C92 %480.0 W/m²2.1 km/hOst-SO8.3 km/hOst-SO1021.2 hPa0.0 mm0.0 mm/h
26.09.2017 - 11.15Uhr13.5 °C12.2 °C91 %582.0 W/m²0.6 km/hOst-SO1.8 km/hOst-SO1021.2 hPa0.0 mm0.0 mm/h
26.09.2017 - 11.20Uhr13.9 °C12.2 °C90 %536.0 W/m²1.5 km/hOst-SO4.0 km/hOst-SO1021.1 hPa0.0 mm0.0 mm/h
26.09.2017 - 11.25Uhr14.0 °C12.2 °C89 %563.0 W/m²0.6 km/hOst-SO1.8 km/hOst-SO1021.1 hPa0.0 mm0.0 mm/h
26.09.2017 - 11.30Uhr14.2 °C12.2 °C87 %571.0 W/m²1.9 km/hOst-SO8.3 km/hOst-SO1021.0 hPa0.0 mm0.0 mm/h
26.09.2017 - 11.35Uhr15.0 °C12.9 °C87 %584.0 W/m²1.0 km/hOst-SO4.0 km/hOst-SO1021.0 hPa0.0 mm0.0 mm/h
26.09.2017 - 11.40Uhr15.5 °C13.0 °C85 %599.0 W/m²1.1 km/hOst-SO4.0 km/hOst-SO1021.0 hPa0.0 mm0.0 mm/h
26.09.2017 - 11.45Uhr15.7 °C13.0 °C84 %568.0 W/m²1.0 km/hOst-SO4.0 km/hOst-SO1020.9 hPa0.0 mm0.0 mm/h
26.09.2017 - 11.50Uhr15.4 °C12.7 °C84 %578.0 W/m²3.2 km/hOst-SO8.3 km/hOst-SO1020.8 hPa0.0 mm0.0 mm/h
26.09.2017 - 11.55Uhr15.2 °C12.5 °C84 %573.0 W/m²1.3 km/hOst-SO4.0 km/hOst-SO1020.8 hPa0.0 mm0.0 mm/h
26.09.2017 - 12.00Uhr15.7 °C13.0 °C84 %577.0 W/m²2.2 km/hOst-SO8.3 km/hOst-SO1020.7 hPa0.0 mm0.0 mm/h
26.09.2017 - 12.05Uhr16.3 °C13.5 °C83 %584.0 W/m²1.8 km/hOst-SO8.3 km/hOst-SO1020.6 hPa0.0 mm0.0 mm/h
26.09.2017 - 12.10Uhr16.5 °C13.3 °C82 %603.0 W/m²1.8 km/hOst-SO8.3 km/hOst-SO1020.6 hPa0.0 mm0.0 mm/h
26.09.2017 - 12.15Uhr16.8 °C13.5 °C81 %619.0 W/m²1.9 km/hOst-SO8.3 km/hOst-SO1020.6 hPa0.0 mm0.0 mm/h
26.09.2017 - 12.20Uhr17.1 °C13.5 °C79 %622.0 W/m²1.5 km/hOst-SO8.3 km/hOst-SO1020.5 hPa0.0 mm0.0 mm/h
26.09.2017 - 12.25Uhr17.2 °C13.6 °C79 %684.0 W/m²2.2 km/hOst-SO8.3 km/hOst-SO1020.5 hPa0.0 mm0.0 mm/h
26.09.2017 - 12.30Uhr17.7 °C14.0 °C79 %675.0 W/m²2.8 km/hOst-SO8.3 km/hOst-SO1020.4 hPa0.0 mm0.0 mm/h
26.09.2017 - 12.35Uhr17.7 °C13.9 °C78 %533.0 W/m²2.2 km/hOst-SO8.3 km/hSüdosten1020.4 hPa0.0 mm0.0 mm/h
26.09.2017 - 12.40Uhr17.8 °C13.8 °C78 %621.0 W/m²1.7 km/hSüdosten8.3 km/hSüdosten1020.4 hPa0.0 mm0.0 mm/h
26.09.2017 - 12.45Uhr17.7 °C13.6 °C77 %281.0 W/m²1.4 km/hSüdosten4.0 km/hSüdosten1020.4 hPa0.0 mm0.0 mm/h
26.09.2017 - 12.50Uhr17.1 °C13.2 °C78 %274.0 W/m²2.6 km/hSüdosten8.3 km/hSüdosten1020.4 hPa0.0 mm0.0 mm/h
26.09.2017 - 12.55Uhr16.9 °C13.0 °C78 %274.0 W/m²5.2 km/hSüdosten8.3 km/hOst-SO1020.4 hPa0.0 mm0.0 mm/h
26.09.2017 - 13.00Uhr17.1 °C13.3 °C79 %292.0 W/m²1.1 km/hOst-SO8.3 km/hOst-SO1020.4 hPa0.0 mm0.0 mm/h
26.09.2017 - 13.05Uhr17.3 °C13.5 °C78 %320.0 W/m²0.8 km/hOst-SO4.0 km/hOst-SO1020.3 hPa0.0 mm0.0 mm/h
26.09.2017 - 13.10Uhr17.6 °C13.8 °C79 %327.0 W/m²2.2 km/hOst-SO8.3 km/hOst-SO1020.4 hPa0.0 mm0.0 mm/h
26.09.2017 - 13.15Uhr17.6 °C13.6 °C78 %311.0 W/m²5.6 km/hSüd-SO10.1 km/hSüdosten1020.4 hPa0.0 mm0.0 mm/h
26.09.2017 - 13.20Uhr17.4 °C13.6 °C78 %322.0 W/m²1.5 km/hSüd-SO4.0 km/hSüd-SO1020.4 hPa0.0 mm0.0 mm/h
26.09.2017 - 13.25Uhr17.3 °C13.4 °C78 %325.0 W/m²2.3 km/hSüd-SO8.3 km/hSüd-SO1020.4 hPa0.0 mm0.0 mm/h
26.09.2017 - 13.30Uhr17.6 °C13.8 °C78 %316.0 W/m²2.8 km/hSüden8.3 km/hSüd-SO1020.3 hPa0.0 mm0.0 mm/h
26.09.2017 - 13.35Uhr17.5 °C13.3 °C77 %323.0 W/m²5.6 km/hSüd-SO12.2 km/hSüd-SO1020.4 hPa0.0 mm0.0 mm/h
26.09.2017 - 13.40Uhr17.5 °C13.7 °C79 %322.0 W/m²2.6 km/hSüd-SO8.3 km/hSüd-SO1020.3 hPa0.0 mm0.0 mm/h
26.09.2017 - 13.45Uhr17.7 °C13.9 °C79 %302.0 W/m²1.8 km/hSüd-SO4.0 km/hSüd-SO1020.3 hPa0.0 mm0.0 mm/h
26.09.2017 - 13.50Uhr17.8 °C14.0 °C79 %287.0 W/m²2.3 km/hSüdosten8.3 km/hSüdosten1020.3 hPa0.0 mm0.0 mm/h
26.09.2017 - 13.55Uhr17.8 °C13.9 °C78 %274.0 W/m²3.7 km/hSüd-SO10.1 km/hSüd-SO1020.3 hPa0.0 mm0.0 mm/h
26.09.2017 - 14.00Uhr17.7 °C14.0 °C79 %283.0 W/m²3.8 km/hSüden14.0 km/hSüd-SO1020.2 hPa0.0 mm0.0 mm/h
26.09.2017 - 14.05Uhr17.8 °C14.2 °C80 %272.0 W/m²5.5 km/hSüdwesten16.2 km/hSüd-SO1020.1 hPa0.0 mm0.0 mm/h
26.09.2017 - 14.10Uhr17.6 °C13.9 °C79 %258.0 W/m²8.9 km/hSüd-SO12.2 km/hSüdosten1020.1 hPa0.0 mm0.0 mm/h
26.09.2017 - 14.15Uhr17.5 °C13.9 °C79 %251.0 W/m²2.5 km/hSüden8.3 km/hSüden1020.1 hPa0.0 mm0.0 mm/h
26.09.2017 - 14.20Uhr17.7 °C14.2 °C80 %255.0 W/m²2.2 km/hSüden8.3 km/hSüden1020.1 hPa0.0 mm0.0 mm/h
26.09.2017 - 14.25Uhr17.8 °C14.2 °C80 %225.0 W/m²2.9 km/hSüd-SO8.3 km/hSüd-SO1020.0 hPa0.0 mm0.0 mm/h
26.09.2017 - 14.30Uhr17.7 °C14.1 °C79 %193.0 W/m²3.6 km/hSüd-SO12.2 km/hSüd-SO1020.0 hPa0.0 mm0.0 mm/h
26.09.2017 - 14.35Uhr17.7 °C14.0 °C79 %183.0 W/m²3.6 km/hSüd-SO10.1 km/hSüdosten1020.0 hPa0.0 mm0.0 mm/h
26.09.2017 - 14.40Uhr17.6 °C13.9 °C79 %181.0 W/m²1.6 km/hSüd-SO4.0 km/hSüd-SO1020.0 hPa0.0 mm0.0 mm/h
26.09.2017 - 14.45Uhr17.4 °C13.8 °C79 %183.0 W/m²2.9 km/hSüd-SO8.3 km/hSüd-SO1020.0 hPa0.0 mm0.0 mm/h
26.09.2017 - 14.50Uhr17.6 °C14.1 °C80 %174.0 W/m²2.4 km/hSüd-SW5.8 km/hSüden1020.0 hPa0.0 mm0.0 mm/h
26.09.2017 - 14.55Uhr17.6 °C14.1 °C80 %171.0 W/m²0.3 km/hSüd-SW1.8 km/hSüd-SW1020.0 hPa0.0 mm0.0 mm/h
26.09.2017 - 15.00Uhr17.6 °C14.1 °C80 %146.0 W/m²1.4 km/hSüd-SW5.8 km/hSüd-SW1020.0 hPa0.0 mm0.0 mm/h
26.09.2017 - 15.05Uhr17.5 °C14.0 °C80 %128.0 W/m²1.6 km/hSüd-SW4.0 km/hSüd-SW1020.0 hPa0.0 mm0.0 mm/h
26.09.2017 - 15.10Uhr17.3 °C13.8 °C80 %130.0 W/m²1.8 km/hSüd-SW5.8 km/hSüd-SW1020.0 hPa0.0 mm0.0 mm/h
26.09.2017 - 15.15Uhr17.3 °C13.8 °C80 %149.0 W/m²1.6 km/hSüd-SW8.3 km/hSüd-SW1020.0 hPa0.0 mm0.0 mm/h
26.09.2017 - 15.20Uhr17.4 °C13.8 °C80 %155.0 W/m²1.2 km/hSüd-SW4.0 km/hSüd-SW1020.1 hPa0.0 mm0.0 mm/h
26.09.2017 - 15.25Uhr17.4 °C14.1 °C81 %153.0 W/m²0.2 km/hSüd-SW1.8 km/hSüd-SW1020.1 hPa0.0 mm0.0 mm/h
26.09.2017 - 15.30Uhr17.4 °C13.9 °C80 %137.0 W/m²2.8 km/hSüd-SW10.1 km/hSüd-SO1020.1 hPa0.0 mm0.0 mm/h
26.09.2017 - 15.35Uhr17.3 °C14.1 °C82 %130.0 W/m²1.2 km/hSüd-SO4.0 km/hSüd-SO1020.1 hPa0.0 mm0.0 mm/h
26.09.2017 - 15.40Uhr17.3 °C14.2 °C82 %132.0 W/m²1.8 km/hSüdwesten5.8 km/hSüdwesten1020.1 hPa0.0 mm0.0 mm/h
26.09.2017 - 15.45Uhr17.3 °C14.1 °C81 %130.0 W/m²1.8 km/hSüd-SW5.8 km/hSüd-SW1020.1 hPa0.0 mm0.0 mm/h
26.09.2017 - 15.50Uhr17.3 °C14.0 °C81 %130.0 W/m²2.2 km/hSüd-SW8.3 km/hSüdwesten1020.0 hPa0.0 mm0.0 mm/h
26.09.2017 - 15.55Uhr17.3 °C13.9 °C81 %116.0 W/m²1.7 km/hSüd-SW5.8 km/hSüd-SW1020.0 hPa0.0 mm0.0 mm/h
26.09.2017 - 16.00Uhr17.3 °C13.9 °C81 %127.0 W/m²1.2 km/hSüd-SW5.8 km/hSüdwesten1020.1 hPa0.0 mm0.0 mm/h
26.09.2017 - 16.05Uhr17.3 °C13.8 °C80 %148.0 W/m²1.3 km/hSüdwesten4.0 km/hSüdwesten1020.1 hPa0.0 mm0.0 mm/h
26.09.2017 - 16.10Uhr17.4 °C13.9 °C80 %167.0 W/m²1.7 km/hSüdwesten5.8 km/hSüdwesten1020.1 hPa0.0 mm0.0 mm/h
26.09.2017 - 16.15Uhr17.6 °C14.2 °C81 %186.0 W/m²1.3 km/hSüdwesten5.8 km/hSüdwesten1020.1 hPa0.0 mm0.0 mm/h
26.09.2017 - 16.20Uhr17.7 °C14.1 °C80 %230.0 W/m²1.2 km/hSüdwesten4.0 km/hSüdwesten1020.1 hPa0.0 mm0.0 mm/h
26.09.2017 - 16.25Uhr17.9 °C14.0 °C78 %258.0 W/m²1.9 km/hSüdwesten8.3 km/hSüdwesten1020.2 hPa0.0 mm0.0 mm/h
26.09.2017 - 16.30Uhr18.1 °C13.9 °C77 %253.0 W/m²3.8 km/hSüdwesten10.1 km/hSüd-SO1020.2 hPa0.0 mm0.0 mm/h
26.09.2017 - 16.35Uhr17.9 °C13.7 °C76 %188.0 W/m²1.2 km/hSüdwesten4.0 km/hSüdwesten1020.2 hPa0.0 mm0.0 mm/h
26.09.2017 - 16.40Uhr17.8 °C13.2 °C75 %155.0 W/m²4.3 km/hWest-NW8.3 km/hSüd-SO1020.2 hPa0.0 mm0.0 mm/h
26.09.2017 - 16.45Uhr17.8 °C12.8 °C73 %162.0 W/m²4.2 km/hSüd-SO8.3 km/hSüd-SO1020.3 hPa0.0 mm0.0 mm/h
26.09.2017 - 16.50Uhr17.7 °C13.3 °C75 %160.0 W/m²3.1 km/hSüd-SO8.3 km/hSüd-SO1020.3 hPa0.0 mm0.0 mm/h
26.09.2017 - 16.55Uhr17.7 °C13.7 °C77 %139.0 W/m²1.8 km/hSüd-SO8.3 km/hSüd-SO1020.3 hPa0.0 mm0.0 mm/h
26.09.2017 - 17.00Uhr17.7 °C13.4 °C76 %137.0 W/m²1.4 km/hSüd-SO4.0 km/hSüd-SO1020.4 hPa0.0 mm0.0 mm/h
26.09.2017 - 17.05Uhr17.7 °C13.5 °C77 %130.0 W/m²0.7 km/hSüd-SO1.8 km/hSüd-SO1020.5 hPa0.0 mm0.0 mm/h
26.09.2017 - 17.10Uhr17.6 °C13.7 °C78 %141.0 W/m²1.3 km/hSüd-SO8.3 km/hSüd-SO1020.5 hPa0.0 mm0.0 mm/h
26.09.2017 - 17.15Uhr17.6 °C13.7 °C78 %153.0 W/m²3.7 km/hSüd-SO8.3 km/hSüd-SO1020.4 hPa0.0 mm0.0 mm/h
26.09.2017 - 17.20Uhr17.6 °C13.8 °C79 %153.0 W/m²3.8 km/hSüden8.3 km/hSüden1020.5 hPa0.0 mm0.0 mm/h
26.09.2017 - 17.25Uhr17.6 °C13.9 °C79 %141.0 W/m²4.0 km/hSüden12.2 km/hSüdosten1020.5 hPa0.0 mm0.0 mm/h
26.09.2017 - 17.30Uhr17.5 °C13.8 °C79 %132.0 W/m²4.5 km/hSüdosten8.3 km/hSüdosten1020.5 hPa0.0 mm0.0 mm/h
26.09.2017 - 17.35Uhr17.4 °C13.8 °C80 %132.0 W/m²3.5 km/hSüdosten10.1 km/hSüdosten1020.5 hPa0.0 mm0.0 mm/h
26.09.2017 - 17.40Uhr17.4 °C13.9 °C80 %114.0 W/m²3.1 km/hSüdosten8.3 km/hSüdosten1020.5 hPa0.0 mm0.0 mm/h
26.09.2017 - 17.45Uhr17.2 °C13.7 °C80 %91.0 W/m²5.8 km/hSüd-SO12.2 km/hSüd-SO1020.5 hPa0.0 mm0.0 mm/h
26.09.2017 - 17.50Uhr17.1 °C13.6 °C80 %72.0 W/m²5.2 km/hSüd-SO10.1 km/hSüdosten1020.5 hPa0.0 mm0.0 mm/h
26.09.2017 - 17.55Uhr16.9 °C13.4 °C80 %56.0 W/m²2.9 km/hSüd-SO10.1 km/hSüd-SO1020.5 hPa0.0 mm0.0 mm/h
26.09.2017 - 18.00Uhr16.8 °C13.4 °C81 %51.0 W/m²2.8 km/hSüd-SO8.3 km/hSüd-SO1020.5 hPa0.0 mm0.0 mm/h
26.09.2017 - 18.05Uhr16.8 °C13.5 °C81 %53.0 W/m²7.3 km/hSüd-SO12.2 km/hSüd-SO1020.5 hPa0.0 mm0.0 mm/h